Time;durP1;ratioP1;P1;durP2;ratioP2;P2;SDS_P1;SDS_P2;PMS_P1;PMS_P2;Temp;Humidity;BMP_temperature;BMP_pressure;BME280_temperature;BME280_humidity;BME280_pressure;Samples;Min_cycle;Max_cycle;Signal;HPM_P1;HPM_P2
2022/04/03 00:00:10;;;;;;;0.13;0.13;;;;;;;;;;6154739;23;20001;-61
2022/04/03 00:02:35;;;;;;;0.00;0.00;;;;;;;;;;6156314;23;19997;-61
2022/04/03 00:05:00;;;;;;;0.00;0.00;;;;;;;;;;6157428;23;20073;-60
2022/04/03 00:07:26;;;;;;;0.38;0.38;;;;;;;;;;6158057;23;20070;-61
2022/04/03 00:09:51;;;;;;;0.00;0.00;;;;;;;;;;6158804;23;19998;-59
2022/04/03 00:12:16;;;;;;;0.00;0.00;;;;;;;;;;6159069;23;20005;-60
2022/04/03 00:14:41;;;;;;;0.00;0.00;;;;;;;;;;6158907;23;20001;-60
2022/04/03 00:17:06;;;;;;;0.00;0.00;;;;;;;;;;6158751;23;20419;-61
2022/04/03 00:19:32;;;;;;;0.00;0.00;;;;;;;;;;6158937;23;20002;-60
2022/04/03 00:21:59;;;;;;;0.00;0.00;;;;;;;;;;6158714;23;20511;-59
2022/04/03 00:24:24;;;;;;;1.58;1.48;;;;;;;;;;6158223;23;20484;-59
2022/04/03 00:26:49;;;;;;;0.00;0.00;;;;;;;;;;6158487;23;19997;-58
2022/04/03 00:29:15;;;;;;;0.00;0.00;;;;;;;;;;6158429;23;20001;-59
2022/04/03 00:31:40;;;;;;;0.00;0.00;;;;;;;;;;6158557;23;20131;-59
2022/04/03 00:34:05;;;;;;;0.00;0.00;;;;;;;;;;6158600;23;20307;-59
2022/04/03 00:36:30;;;;;;;0.00;0.00;;;;;;;;;;6158337;23;20383;-59
2022/04/03 00:38:55;;;;;;;0.00;0.00;;;;;;;;;;6158236;23;20008;-58
2022/04/03 00:41:22;;;;;;;0.00;0.00;;;;;;;;;;6158130;23;20293;-59
2022/04/03 00:43:47;;;;;;;0.00;0.00;;;;;;;;;;6158518;23;20303;-60
2022/04/03 00:46:15;;;;;;;0.00;0.00;;;;;;;;;;6158366;23;20076;-62
2022/04/03 00:48:40;;;;;;;0.00;0.00;;;;;;;;;;6158427;23;20423;-60
2022/04/03 00:51:05;;;;;;;0.00;0.00;;;;;;;;;;6158150;23;20124;-61
2022/04/03 00:53:31;;;;;;;0.05;0.05;;;;;;;;;;6157696;23;20543;-59
2022/04/03 00:55:56;;;;;;;0.00;0.00;;;;;;;;;;6157746;23;19998;-59
2022/04/03 00:58:22;;;;;;;0.00;0.00;;;;;;;;;;6157848;23;20056;-59
2022/04/03 01:00:47;;;;;;;0.00;0.00;;;;;;;;;;6157980;23;20040;-59
2022/04/03 01:03:12;;;;;;;0.00;0.00;;;;;;;;;;6157932;23;20068;-60
2022/04/03 01:05:37;;;;;;;0.00;0.00;;;;;;;;;;6157214;23;20404;-60
2022/04/03 01:08:03;;;;;;;0.00;0.00;;;;;;;;;;6157339;23;19997;-61
2022/04/03 01:10:28;;;;;;;0.22;0.22;;;;;;;;;;6157164;23;20047;-62
2022/04/03 01:12:53;;;;;;;0.00;0.00;;;;;;;;;;6157543;23;20080;-63
2022/04/03 01:15:19;;;;;;;0.00;0.00;;;;;;;;;;6157395;23;20076;-61
2022/04/03 01:17:44;;;;;;;0.00;0.00;;;;;;;;;;6157501;23;19998;-61
2022/04/03 01:20:10;;;;;;;0.00;0.00;;;;;;;;;;6157080;23;20002;-62
2022/04/03 01:22:36;;;;;;;0.00;0.00;;;;;;;;;;6157465;23;20069;-62
2022/04/03 01:25:01;;;;;;;0.15;0.15;;;;;;;;;;6157594;23;20002;-62
2022/04/03 01:27:26;;;;;;;0.00;0.00;;;;;;;;;;6155917;23;20416;-59
2022/04/03 01:29:52;;;;;;;0.70;0.70;;;;;;;;;;6152898;23;19994;-59
2022/04/03 01:32:18;;;;;;;0.00;0.00;;;;;;;;;;6153030;23;20011;-59
2022/04/03 01:34:43;;;;;;;0.00;0.00;;;;;;;;;;6153647;23;20001;-59
2022/04/03 01:37:09;;;;;;;0.00;0.00;;;;;;;;;;6154178;23;20004;-60
2022/04/03 01:39:34;;;;;;;0.00;0.00;;;;;;;;;;6152753;23;20009;-60
2022/04/03 01:42:01;;;;;;;0.00;0.00;;;;;;;;;;6153345;23;20085;-59
2022/04/03 01:44:26;;;;;;;0.00;0.00;;;;;;;;;;6152199;23;20025;-59
2022/04/03 01:46:51;;;;;;;0.00;0.00;;;;;;;;;;6152562;23;20418;-58
2022/04/03 01:49:17;;;;;;;0.00;0.00;;;;;;;;;;6155193;23;20001;-58
2022/04/03 01:51:42;;;;;;;0.00;0.00;;;;;;;;;;6155423;23;20028;-59
2022/04/03 01:54:07;;;;;;;0.00;0.00;;;;;;;;;;6155060;23;20025;-58
2022/04/03 01:56:36;;;;;;;0.00;0.00;;;;;;;;;;6154045;23;20008;-60
2022/04/03 01:59:01;;;;;;;0.47;0.47;;;;;;;;;;6154392;23;20009;-62
2022/04/03 02:01:28;;;;;;;0.73;0.73;;;;;;;;;;6154332;23;20004;-61
2022/04/03 02:03:54;;;;;;;0.15;0.15;;;;;;;;;;6155350;23;19994;-61
2022/04/03 02:06:19;;;;;;;0.00;0.00;;;;;;;;;;6153764;23;20004;-60
2022/04/03 02:08:44;;;;;;;0.90;0.82;;;;;;;;;;6153224;23;19998;-60
2022/04/03 02:11:10;;;;;;;0.80;0.80;;;;;;;;;;6152431;23;20437;-61
2022/04/03 02:13:35;;;;;;;0.38;0.38;;;;;;;;;;6153380;23;20073;-60
2022/04/03 02:16:00;;;;;;;0.20;0.20;;;;;;;;;;6155876;23;20004;-60
2022/04/03 02:18:25;;;;;;;0.00;0.00;;;;;;;;;;6155628;23;20419;-60
2022/04/03 02:20:51;;;;;;;0.10;0.10;;;;;;;;;;6155406;23;20001;-59
2022/04/03 02:23:16;;;;;;;1.42;1.42;;;;;;;;;;6155395;23;20005;-59
2022/04/03 02:25:41;;;;;;;0.00;0.00;;;;;;;;;;6155159;23;20292;-60
2022/04/03 02:28:09;;;;;;;0.00;0.00;;;;;;;;;;6155292;23;20327;-60
2022/04/03 02:30:34;;;;;;;0.00;0.00;;;;;;;;;;6155231;23;20001;-60
2022/04/03 02:32:59;;;;;;;0.45;0.45;;;;;;;;;;6154927;23;20005;-59
2022/04/03 02:35:24;;;;;;;1.27;1.27;;;;;;;;;;6154210;23;19997;-60
2022/04/03 02:37:50;;;;;;;1.85;1.30;;;;;;;;;;6153859;23;20001;-60
2022/04/03 02:40:16;;;;;;;0.20;0.20;;;;;;;;;;6154129;23;20028;-59
2022/04/03 02:42:41;;;;;;;0.00;0.00;;;;;;;;;;6154015;23;20006;-60
2022/04/03 02:45:08;;;;;;;0.00;0.00;;;;;;;;;;6154463;23;20064;-61
2022/04/03 02:47:33;;;;;;;0.00;0.00;;;;;;;;;;6127345;23;20000;-61
2022/04/03 02:49:58;;;;;;;0.13;0.13;;;;;;;;;;6153512;23;20320;-61
2022/04/03 02:52:24;;;;;;;0.30;0.30;;;;;;;;;;6152876;23;20005;-61
2022/04/03 02:54:49;;;;;;;0.00;0.00;;;;;;;;;;6153314;23;20029;-61
2022/04/03 02:57:15;;;;;;;2.65;2.55;;;;;;;;;;6155500;23;20423;-60
2022/04/03 02:59:40;;;;;;;0.00;0.00;;;;;;;;;;6155249;23;19998;-60
2022/04/03 03:02:06;;;;;;;0.00;0.00;;;;;;;;;;6155631;23;19997;-61
2022/04/03 03:04:37;;;;;;;0.10;0.10;;;;;;;;;;6155527;23;20006;-60
2022/04/03 03:07:03;;;;;;;0.00;0.00;;;;;;;;;;6155745;23;19993;-61
2022/04/03 03:09:28;;;;;;;0.00;0.00;;;;;;;;;;6155761;23;20001;-61
2022/04/03 03:11:53;;;;;;;0.00;0.00;;;;;;;;;;6156077;23;20323;-61
2022/04/03 03:14:19;;;;;;;0.00;0.00;;;;;;;;;;6151721;23;19997;-58
2022/04/03 03:16:44;;;;;;;0.00;0.00;;;;;;;;;;6152041;23;20016;-58
2022/04/03 03:19:09;;;;;;;0.35;0.35;;;;;;;;;;6151846;23;20001;-61
2022/04/03 03:21:40;;;;;;;0.00;0.00;;;;;;;;;;6154095;23;19994;-60
2022/04/03 03:24:06;;;;;;;0.00;0.00;;;;;;;;;;6154445;23;20080;-58
2022/04/03 03:26:31;;;;;;;0.00;0.00;;;;;;;;;;6154960;23;20001;-58
2022/04/03 03:28:57;;;;;;;0.00;0.00;;;;;;;;;;6153932;23;20416;-59
2022/04/03 03:31:22;;;;;;;0.00;0.00;;;;;;;;;;6154527;23;19998;-59
2022/04/03 03:33:47;;;;;;;0.00;0.00;;;;;;;;;;6155278;23;20080;-58
2022/04/03 03:36:13;;;;;;;0.00;0.00;;;;;;;;;;6155215;23;20015;-59
2022/04/03 03:38:38;;;;;;;0.00;0.00;;;;;;;;;;6128801;23;20380;-59
2022/04/03 03:41:03;;;;;;;0.00;0.00;;;;;;;;;;6154659;23;20403;-59
2022/04/03 03:43:29;;;;;;;0.00;0.00;;;;;;;;;;6154702;23;20124;-59
2022/04/03 03:45:54;;;;;;;0.00;0.00;;;;;;;;;;6154787;23;20017;-59
2022/04/03 03:48:20;;;;;;;0.00;0.00;;;;;;;;;;6154529;23;19998;-59
2022/04/03 03:50:46;;;;;;;0.10;0.10;;;;;;;;;;6155053;23;20458;-60
2022/04/03 03:53:11;;;;;;;0.00;0.00;;;;;;;;;;6155661;23;20006;-61
2022/04/03 03:55:36;;;;;;;0.00;0.00;;;;;;;;;;6155554;23;20048;-60
2022/04/03 03:58:02;;;;;;;0.00;0.00;;;;;;;;;;6154987;23;20044;-60
2022/04/03 04:00:27;;;;;;;0.10;0.10;;;;;;;;;;6155399;23;20072;-62
2022/04/03 04:02:52;;;;;;;0.00;0.00;;;;;;;;;;6156278;23;20001;-62
2022/04/03 04:05:17;;;;;;;0.00;0.00;;;;;;;;;;6156277;23;20036;-62
2022/04/03 04:07:43;;;;;;;0.00;0.00;;;;;;;;;;6155872;23;19993;-62
2022/04/03 04:10:12;;;;;;;0.00;0.00;;;;;;;;;;6155872;23;20006;-62
2022/04/03 04:12:38;;;;;;;0.00;0.00;;;;;;;;;;6156209;23;20044;-62
2022/04/03 04:15:03;;;;;;;0.00;0.00;;;;;;;;;;6155721;23;20009;-61
2022/04/03 04:17:32;;;;;;;0.00;0.00;;;;;;;;;;6155737;23;20001;-63
2022/04/03 04:19:58;;;;;;;2.13;2.00;;;;;;;;;;6155699;23;20323;-63
2022/04/03 04:22:23;;;;;;;2.20;2.10;;;;;;;;;;6155725;23;19993;-62
2022/04/03 04:24:48;;;;;;;0.00;0.00;;;;;;;;;;6155559;23;20005;-62
2022/04/03 04:27:13;;;;;;;0.00;0.00;;;;;;;;;;6129369;23;20018;-62
2022/04/03 04:29:39;;;;;;;0.00;0.00;;;;;;;;;;6155983;23;20300;-62
2022/04/03 04:32:05;;;;;;;0.00;0.00;;;;;;;;;;6156092;23;19998;-61
2022/04/03 04:34:30;;;;;;;0.55;0.55;;;;;;;;;;6155374;23;20009;-61
2022/04/03 04:36:56;;;;;;;0.00;0.00;;;;;;;;;;6155104;23;20006;-61
2022/04/03 04:39:21;;;;;;;0.00;0.00;;;;;;;;;;6155646;23;20002;-61
2022/04/03 04:41:46;;;;;;;0.00;0.00;;;;;;;;;;6157120;23;19994;-62
2022/04/03 04:44:12;;;;;;;0.00;0.00;;;;;;;;;;6157614;23;20434;-62
2022/04/03 04:46:37;;;;;;;0.00;0.00;;;;;;;;;;6157640;23;20119;-62
2022/04/03 04:49:02;;;;;;;0.00;0.00;;;;;;;;;;6157377;23;20076;-61
2022/04/03 04:51:27;;;;;;;0.00;0.00;;;;;;;;;;6156267;23;20467;-62
2022/04/03 04:53:52;;;;;;;0.00;0.00;;;;;;;;;;6154977;23;20024;-62
2022/04/03 04:56:18;;;;;;;0.00;0.00;;;;;;;;;;6156382;23;20320;-61
2022/04/03 04:58:43;;;;;;;0.00;0.00;;;;;;;;;;6156917;23;20363;-60
2022/04/03 05:01:08;;;;;;;0.00;0.00;;;;;;;;;;6156534;23;20021;-63
2022/04/03 05:03:33;;;;;;;0.00;0.00;;;;;;;;;;6156330;23;19998;-64
2022/04/03 05:05:59;;;;;;;0.00;0.00;;;;;;;;;;6156952;23;20408;-64
2022/04/03 05:08:24;;;;;;;0.00;0.00;;;;;;;;;;6156131;23;20404;-61
2022/04/03 05:10:50;;;;;;;0.00;0.00;;;;;;;;;;6155725;23;20038;-60
2022/04/03 05:13:15;;;;;;;0.10;0.10;;;;;;;;;;6156018;23;20332;-60
2022/04/03 05:15:40;;;;;;;0.00;0.00;;;;;;;;;;6155784;23;20077;-61
2022/04/03 05:18:06;;;;;;;0.00;0.00;;;;;;;;;;6155733;23;20005;-61
2022/04/03 05:20:33;;;;;;;0.00;0.00;;;;;;;;;;6154918;23;20076;-62
2022/04/03 05:22:58;;;;;;;1.50;1.50;;;;;;;;;;6156664;23;20000;-62
2022/04/03 05:25:23;;;;;;;0.00;0.00;;;;;;;;;;6156160;23;19994;-62
2022/04/03 05:27:49;;;;;;;0.77;0.47;;;;;;;;;;6156554;23;20002;-62
2022/04/03 05:30:14;;;;;;;0.35;0.35;;;;;;;;;;6156429;23;20005;-63
2022/04/03 05:32:40;;;;;;;0.03;0.03;;;;;;;;;;6155661;23;19997;-63
2022/04/03 05:35:06;;;;;;;0.00;0.00;;;;;;;;;;6156272;23;20074;-60
2022/04/03 05:37:32;;;;;;;0.75;0.75;;;;;;;;;;6156404;23;20006;-61
2022/04/03 05:39:57;;;;;;;0.00;0.00;;;;;;;;;;6156210;23;20051;-60
2022/04/03 05:42:22;;;;;;;0.00;0.00;;;;;;;;;;6156439;23;20075;-61
2022/04/03 05:44:48;;;;;;;1.25;1.25;;;;;;;;;;6157248;23;20084;-62
2022/04/03 05:47:16;;;;;;;0.50;0.50;;;;;;;;;;6157365;23;20100;-62
2022/04/03 05:49:41;;;;;;;0.00;0.00;;;;;;;;;;6157712;23;20046;-60
2022/04/03 05:52:06;;;;;;;0.90;0.55;;;;;;;;;;6156462;23;20005;-61
2022/04/03 05:54:32;;;;;;;0.00;0.00;;;;;;;;;;6156258;23;20100;-60
2022/04/03 05:56:57;;;;;;;0.00;0.00;;;;;;;;;;6153549;23;20041;-61
2022/04/03 05:59:22;;;;;;;1.10;1.10;;;;;;;;;;6152309;23;20033;-61
2022/04/03 06:01:48;;;;;;;0.00;0.00;;;;;;;;;;6154494;23;20148;-62
2022/04/03 06:04:13;;;;;;;0.43;0.43;;;;;;;;;;6153655;23;20009;-64
2022/04/03 06:06:38;;;;;;;0.00;0.00;;;;;;;;;;6152876;23;20420;-60
2022/04/03 06:09:04;;;;;;;0.65;0.65;;;;;;;;;;6152396;23;20628;-60
2022/04/03 06:11:29;;;;;;;0.17;0.17;;;;;;;;;;6153144;23;19997;-63
2022/04/03 06:13:54;;;;;;;0.00;0.00;;;;;;;;;;6153232;23;20002;-60
2022/04/03 06:16:19;;;;;;;0.00;0.00;;;;;;;;;;6153083;23;20028;-59
2022/04/03 06:18:45;;;;;;;0.00;0.00;;;;;;;;;;6154906;23;20021;-63
2022/04/03 06:21:10;;;;;;;0.25;0.25;;;;;;;;;;6156136;23;20411;-63
2022/04/03 06:23:36;;;;;;;0.00;0.00;;;;;;;;;;6156627;23;19997;-63
2022/04/03 06:26:02;;;;;;;10.88;8.10;;;;;;;;;;6156605;23;20025;-64
2022/04/03 06:28:27;;;;;;;0.10;0.10;;;;;;;;;;6155260;23;20000;-63
2022/04/03 06:30:54;;;;;;;0.10;0.10;;;;;;;;;;6153784;23;20001;-61
2022/04/03 06:33:20;;;;;;;0.00;0.00;;;;;;;;;;6155278;23;20053;-61
2022/04/03 06:35:45;;;;;;;0.00;0.00;;;;;;;;;;6154974;23;20001;-62
2022/04/03 06:38:11;;;;;;;0.17;0.17;;;;;;;;;;6154777;23;20320;-60
2022/04/03 06:40:36;;;;;;;2.05;1.92;;;;;;;;;;6127627;23;20662;-60
2022/04/03 06:43:02;;;;;;;0.00;0.00;;;;;;;;;;6153404;23;20454;-63
2022/04/03 06:45:27;;;;;;;1.92;0.75;;;;;;;;;;6151998;23;20081;-64
2022/04/03 06:47:54;;;;;;;0.15;0.08;;;;;;;;;;6152646;23;20427;-61
2022/04/03 06:50:20;;;;;;;0.30;0.30;;;;;;;;;;6153568;23;20101;-60
2022/04/03 06:52:46;;;;;;;0.45;0.45;;;;;;;;;;6151208;23;20031;-61
2022/04/03 06:55:12;;;;;;;0.00;0.00;;;;;;;;;;6154228;23;20388;-59
2022/04/03 06:57:37;;;;;;;1.45;1.35;;;;;;;;;;6155152;23;20036;-59
2022/04/03 07:00:05;;;;;;;0.00;0.00;;;;;;;;;;6154564;23;20077;-59
2022/04/03 07:02:30;;;;;;;2.42;2.22;;;;;;;;;;6154887;23;19997;-59
2022/04/03 07:04:56;;;;;;;0.00;0.00;;;;;;;;;;6153372;23;20447;-60
2022/04/03 07:07:22;;;;;;;0.00;0.00;;;;;;;;;;6155888;23;20084;-59
2022/04/03 07:09:47;;;;;;;0.57;0.57;;;;;;;;;;6155849;23;20001;-62
2022/04/03 07:12:14;;;;;;;1.13;1.02;;;;;;;;;;6154164;23;20300;-61
2022/04/03 07:14:39;;;;;;;1.00;1.00;;;;;;;;;;6152712;23;20001;-63
2022/04/03 07:17:04;;;;;;;0.38;0.22;;;;;;;;;;6151045;23;20016;-60
2022/04/03 07:19:29;;;;;;;0.25;0.25;;;;;;;;;;6152040;23;20001;-61
2022/04/03 07:21:56;;;;;;;0.43;0.43;;;;;;;;;;6154654;23;20474;-57
2022/04/03 07:24:22;;;;;;;1.25;1.15;;;;;;;;;;6155032;23;20040;-63
2022/04/03 07:26:47;;;;;;;0.28;0.10;;;;;;;;;;6155401;23;20351;-58
2022/04/03 07:29:12;;;;;;;9.35;2.20;;;;;;;;;;6155985;23;20000;-60
2022/04/03 07:31:37;;;;;;;0.63;0.55;;;;;;;;;;6155942;23;20013;-60
2022/04/03 07:34:02;;;;;;;0.10;0.10;;;;;;;;;;6156315;23;20084;-60
2022/04/03 07:36:29;;;;;;;0.15;0.15;;;;;;;;;;6155841;23;20001;-60
2022/04/03 07:38:55;;;;;;;4.18;1.98;;;;;;;;;;6155677;23;20055;-59
2022/04/03 07:41:20;;;;;;;0.00;0.00;;;;;;;;;;6155568;23;20002;-60
2022/04/03 07:43:47;;;;;;;0.52;0.52;;;;;;;;;;6155345;23;20009;-59
2022/04/03 07:46:16;;;;;;;0.55;0.17;;;;;;;;;;6155431;23;19998;-59
2022/04/03 07:48:41;;;;;;;0.90;0.47;;;;;;;;;;6155481;23;20085;-60
2022/04/03 07:51:06;;;;;;;0.00;0.00;;;;;;;;;;6153768;23;20029;-61
2022/04/03 07:53:31;;;;;;;1.25;1.08;;;;;;;;;;6151392;23;20478;-60
2022/04/03 07:55:57;;;;;;;0.00;0.00;;;;;;;;;;6152646;23;20001;-57
2022/04/03 07:58:22;;;;;;;0.08;0.08;;;;;;;;;;6152108;23;19997;-58
2022/04/03 08:00:47;;;;;;;0.00;0.00;;;;;;;;;;6151811;23;19997;-62
2022/04/03 08:03:13;;;;;;;0.00;0.00;;;;;;;;;;6153052;23;19997;-59
2022/04/03 08:05:38;;;;;;;0.00;0.00;;;;;;;;;;6154739;23;19994;-59
2022/04/03 08:08:03;;;;;;;0.00;0.00;;;;;;;;;;6154902;23;19998;-60
2022/04/03 08:10:29;;;;;;;0.20;0.20;;;;;;;;;;6154544;23;19997;-59
2022/04/03 08:12:54;;;;;;;4.40;1.70;;;;;;;;;;6155053;23;20437;-60
2022/04/03 08:15:20;;;;;;;1.05;0.73;;;;;;;;;;6154014;23;20006;-59
2022/04/03 08:17:46;;;;;;;0.08;0.08;;;;;;;;;;6154947;23;20573;-59
2022/04/03 08:20:16;;;;;;;0.00;0.00;;;;;;;;;;6129984;23;20013;-60
2022/04/03 08:22:41;;;;;;;0.20;0.10;;;;;;;;;;6155869;23;20084;-59
2022/04/03 08:25:07;;;;;;;0.20;0.20;;;;;;;;;;6157142;23;20060;-59
2022/04/03 08:27:44;;;;;;;1.15;0.50;;;;;;;;;;6156486;23;20322;-59
2022/04/03 08:30:13;;;;;;;0.00;0.00;;;;;;;;;;6156294;23;20012;-61
2022/04/03 08:32:39;;;;;;;0.00;0.00;;;;;;;;;;6156972;23;20320;-60
2022/04/03 08:35:05;;;;;;;0.00;0.00;;;;;;;;;;6156179;23;20009;-58
2022/04/03 08:37:31;;;;;;;0.40;0.40;;;;;;;;;;6155135;23;20486;-58
2022/04/03 08:39:56;;;;;;;0.47;0.47;;;;;;;;;;6155930;23;20002;-59
2022/04/03 08:42:21;;;;;;;1.95;1.33;;;;;;;;;;6156374;23;19994;-58
2022/04/03 08:44:46;;;;;;;0.00;0.00;;;;;;;;;;6154634;23;20002;-57
2022/04/03 08:47:12;;;;;;;0.28;0.28;;;;;;;;;;6155815;23;20001;-59
2022/04/03 08:49:39;;;;;;;0.10;0.10;;;;;;;;;;6156147;23;20654;-59
2022/04/03 08:52:07;;;;;;;0.43;0.43;;;;;;;;;;6156039;23;20024;-58
2022/04/03 08:54:32;;;;;;;0.00;0.00;;;;;;;;;;6155433;23;20032;-57
2022/04/03 08:56:59;;;;;;;0.00;0.00;;;;;;;;;;6155347;23;20026;-56
2022/04/03 08:59:24;;;;;;;0.10;0.10;;;;;;;;;;6154925;23;20049;-59
2022/04/03 09:01:50;;;;;;;0.00;0.00;;;;;;;;;;6156696;23;19997;-59
2022/04/03 09:04:17;;;;;;;0.85;0.85;;;;;;;;;;6156858;23;20051;-59
2022/04/03 09:06:55;;;;;;;0.00;0.00;;;;;;;;;;6156287;23;20019;-61
2022/04/03 09:09:21;;;;;;;0.38;0.38;;;;;;;;;;6154894;23;20029;-58
2022/04/03 09:12:04;;;;;;;0.20;0.20;;;;;;;;;;6154818;23;20008;-58
2022/04/03 09:14:30;;;;;;;0.00;0.00;;;;;;;;;;6155080;23;20013;-59
2022/04/03 09:16:55;;;;;;;0.00;0.00;;;;;;;;;;6156220;23;20327;-59
2022/04/03 09:19:30;;;;;;;0.00;0.00;;;;;;;;;;6155978;23;20005;-59
2022/04/03 09:21:55;;;;;;;0.15;0.08;;;;;;;;;;6155681;23;20029;-59
2022/04/03 09:24:20;;;;;;;0.08;0.03;;;;;;;;;;6155903;23;20005;-58
2022/04/03 09:26:56;;;;;;;0.47;0.47;;;;;;;;;;6154499;23;20008;-59
2022/04/03 09:29:21;;;;;;;0.17;0.17;;;;;;;;;;6155443;23;20005;-58
2022/04/03 09:31:47;;;;;;;1.25;1.10;;;;;;;;;;6155382;23;20087;-59
2022/04/03 09:34:16;;;;;;;1.08;1.08;;;;;;;;;;6155049;23;20005;-58
2022/04/03 09:36:41;;;;;;;;;;;;;;;;;;6155541;23;20005;-60
2022/04/03 09:39:12;;;;;;;0.05;0.05;;;;;;;;;;6154400;23;19905;-59
2022/04/03 09:41:54;;;;;;;0.03;0.03;;;;;;;;;;6154985;23;20024;-58
2022/04/03 09:44:23;;;;;;;0.10;0.10;;;;;;;;;;6155292;23;20005;-58
2022/04/03 09:47:08;;;;;;;1.58;0.63;;;;;;;;;;6155049;23;19994;-58
2022/04/03 09:49:33;;;;;;;0.00;0.00;;;;;;;;;;6154968;23;20005;-59
2022/04/03 09:51:58;;;;;;;1.45;1.35;;;;;;;;;;6155395;23;20001;-58
2022/04/03 09:54:24;;;;;;;1.17;1.08;;;;;;;;;;6155311;23;20501;-58
2022/04/03 09:56:49;;;;;;;0.80;0.45;;;;;;;;;;6155209;23;20443;-58
2022/04/03 09:59:15;;;;;;;0.00;0.00;;;;;;;;;;6155365;23;20006;-58
2022/04/03 10:01:41;;;;;;;0.10;0.10;;;;;;;;;;6154622;23;19997;-59
2022/04/03 10:04:07;;;;;;;0.05;0.05;;;;;;;;;;6154851;23;20009;-58
2022/04/03 10:06:34;;;;;;;0.52;0.52;;;;;;;;;;6154762;23;19993;-57
2022/04/03 10:08:59;;;;;;;0.00;0.00;;;;;;;;;;6154789;23;20048;-58
2022/04/03 10:11:25;;;;;;;0.00;0.00;;;;;;;;;;6154597;23;20040;-59
2022/04/03 10:13:50;;;;;;;0.57;0.57;;;;;;;;;;6154240;23;20044;-58
2022/04/03 10:16:16;;;;;;;0.10;0.10;;;;;;;;;;6154652;23;19998;-58
2022/04/03 10:18:43;;;;;;;0.00;0.00;;;;;;;;;;6154385;23;20001;-58
2022/04/03 10:21:15;;;;;;;0.00;0.00;;;;;;;;;;6154402;23;19998;-58
2022/04/03 10:23:41;;;;;;;0.70;0.70;;;;;;;;;;6154772;23;20044;-58
2022/04/03 10:26:08;;;;;;;0.50;0.50;;;;;;;;;;6154393;23;20451;-59
2022/04/03 10:28:35;;;;;;;0.00;0.00;;;;;;;;;;6153314;23;20073;-59
2022/04/03 10:31:07;;;;;;;0.00;0.00;;;;;;;;;;6152783;23;20006;-58
2022/04/03 10:33:36;;;;;;;0.00;0.00;;;;;;;;;;6154435;23;20001;-58
2022/04/03 10:36:06;;;;;;;0.22;0.22;;;;;;;;;;6154737;23;20403;-59
2022/04/03 10:38:35;;;;;;;0.00;0.00;;;;;;;;;;6153525;23;20438;-59
2022/04/03 10:41:00;;;;;;;0.00;0.00;;;;;;;;;;6154415;23;20057;-58
2022/04/03 10:43:29;;;;;;;0.10;0.10;;;;;;;;;;6154159;23;19997;-57
2022/04/03 10:45:55;;;;;;;0.07;0.07;;;;;;;;;;6154288;23;20068;-58
2022/04/03 10:48:23;;;;;;;0.30;0.30;;;;;;;;;;6154634;23;20427;-59
2022/04/03 10:50:57;;;;;;;1.23;0.38;;;;;;;;;;6154181;23;20048;-59
2022/04/03 10:53:24;;;;;;;0.30;0.30;;;;;;;;;;6153737;23;20503;-58
2022/04/03 10:55:54;;;;;;;1.27;1.10;;;;;;;;;;6154037;23;20052;-58
2022/04/03 10:58:19;;;;;;;0.00;0.00;;;;;;;;;;6153991;23;20005;-57
2022/04/03 11:00:45;;;;;;;0.00;0.00;;;;;;;;;;6153630;23;20014;-59
2022/04/03 11:03:12;;;;;;;0.68;0.68;;;;;;;;;;6154159;23;19998;-58
2022/04/03 11:05:42;;;;;;;0.00;0.00;;;;;;;;;;6153634;23;20056;-58
2022/04/03 11:08:07;;;;;;;0.13;0.13;;;;;;;;;;6153922;23;19998;-58
2022/04/03 11:10:54;;;;;;;0.38;0.22;;;;;;;;;;6153883;23;20377;-58
2022/04/03 11:13:23;;;;;;;0.93;0.73;;;;;;;;;;6154284;23;20092;-58
2022/04/03 11:15:48;;;;;;;0.00;0.00;;;;;;;;;;6154086;23;20008;-57
2022/04/03 11:18:27;;;;;;;0.00;0.00;;;;;;;;;;6154020;23;19997;-58
2022/04/03 11:21:08;;;;;;;0.00;0.00;;;;;;;;;;6154039;23;19997;-58
2022/04/03 11:23:35;;;;;;;0.15;0.15;;;;;;;;;;6153725;23;20404;-59
2022/04/03 11:26:00;;;;;;;0.00;0.00;;;;;;;;;;6154019;23;20092;-59
2022/04/03 11:28:26;;;;;;;0.00;0.00;;;;;;;;;;6154577;23;20039;-56
2022/04/03 11:30:51;;;;;;;0.00;0.00;;;;;;;;;;6154673;23;20045;-58
2022/04/03 11:33:17;;;;;;;0.85;0.77;;;;;;;;;;6154434;23;20068;-58
2022/04/03 11:35:42;;;;;;;0.63;0.32;;;;;;;;;;6154424;23;20029;-58
2022/04/03 11:38:09;;;;;;;0.20;0.20;;;;;;;;;;6154087;23;20001;-59
2022/04/03 11:40:34;;;;;;;0.08;0.08;;;;;;;;;;6154441;23;20013;-59
2022/04/03 11:43:07;;;;;;;0.00;0.00;;;;;;;;;;6154321;23;20412;-59
2022/04/03 11:45:32;;;;;;;0.63;0.63;;;;;;;;;;6154197;23;20021;-59
2022/04/03 11:48:13;;;;;;;0.00;0.00;;;;;;;;;;6154347;23;20001;-59
2022/04/03 11:50:38;;;;;;;0.10;0.10;;;;;;;;;;6153397;23;20010;-57
2022/04/03 11:53:08;;;;;;;0.03;0.03;;;;;;;;;;6154447;23;19997;-59
2022/04/03 11:55:34;;;;;;;0.00;0.00;;;;;;;;;;6154606;23;20419;-59
2022/04/03 11:58:00;;;;;;;0.95;0.77;;;;;;;;;;6153563;23;20062;-58
2022/04/03 12:00:25;;;;;;;0.30;0.30;;;;;;;;;;6154007;23;20005;-57
2022/04/03 12:02:56;;;;;;;0.55;0.52;;;;;;;;;;6153835;23;20768;-58
2022/04/03 12:05:21;;;;;;;0.20;0.20;;;;;;;;;;6154344;23;20002;-58
2022/04/03 12:07:50;;;;;;;0.90;0.75;;;;;;;;;;6153815;23;20047;-58
2022/04/03 12:10:24;;;;;;;1.10;1.03;;;;;;;;;;6154451;23;20311;-58
2022/04/03 12:12:49;;;;;;;0.03;0.03;;;;;;;;;;6154130;23;20044;-58
2022/04/03 12:15:19;;;;;;;0.17;0.17;;;;;;;;;;6154168;23;20010;-58
2022/04/03 12:17:44;;;;;;;0.10;0.10;;;;;;;;;;6154015;23;20009;-59
2022/04/03 12:20:11;;;;;;;0.00;0.00;;;;;;;;;;6154190;23;20088;-59
2022/04/03 12:22:39;;;;;;;2.60;1.63;;;;;;;;;;6154526;23;20002;-59
2022/04/03 12:25:05;;;;;;;0.35;0.35;;;;;;;;;;6154632;23;20009;-58
2022/04/03 12:27:32;;;;;;;0.00;0.00;;;;;;;;;;6154326;23;20459;-59
2022/04/03 12:29:57;;;;;;;0.93;0.68;;;;;;;;;;6154132;23;20005;-59
2022/04/03 12:32:22;;;;;;;0.00;0.00;;;;;;;;;;6154545;23;20053;-60
2022/04/03 12:34:49;;;;;;;1.67;0.90;;;;;;;;;;6155390;23;19997;-57
2022/04/03 12:37:14;;;;;;;0.00;0.00;;;;;;;;;;6127963;23;20077;-57
2022/04/03 12:39:52;;;;;;;0.00;0.00;;;;;;;;;;6152665;23;20327;-57
2022/04/03 12:42:20;;;;;;;0.82;0.82;;;;;;;;;;6153172;23;20017;-57
2022/04/03 12:44:45;;;;;;;0.82;0.82;;;;;;;;;;6153155;23;20002;-57
2022/04/03 12:47:14;;;;;;;0.20;0.10;;;;;;;;;;6153406;23;20052;-58
2022/04/03 12:49:41;;;;;;;0.10;0.10;;;;;;;;;;6153330;23;20434;-57
2022/04/03 12:52:06;;;;;;;0.00;0.00;;;;;;;;;;6152811;23;20005;-59
2022/04/03 12:54:45;;;;;;;0.85;0.85;;;;;;;;;;6152408;23;20048;-58
2022/04/03 13:00:16;;;;;;;2.50;1.73;;;;;;;;;;6152646;23;20335;-58
2022/04/03 13:02:45;;;;;;;1.25;0.80;;;;;;;;;;6152782;23;20004;-57
2022/04/03 13:05:14;;;;;;;0.00;0.00;;;;;;;;;;6154511;23;20008;-57
2022/04/03 13:07:39;;;;;;;0.10;0.10;;;;;;;;;;6154049;23;19997;-58
2022/04/03 13:10:06;;;;;;;1.27;0.93;;;;;;;;;;6153992;23;20232;-59
2022/04/03 13:12:31;;;;;;;0.52;0.52;;;;;;;;;;6153397;23;20001;-58
2022/04/03 13:14:59;;;;;;;3.42;0.45;;;;;;;;;;6154122;23;20028;-57
2022/04/03 13:17:25;;;;;;;0.38;0.38;;;;;;;;;;6152083;23;20523;-57
2022/04/03 13:19:50;;;;;;;0.10;0.10;;;;;;;;;;6152167;23;20037;-57
2022/04/03 13:22:16;;;;;;;0.00;0.00;;;;;;;;;;6153828;23;20048;-58
2022/04/03 13:24:41;;;;;;;0.15;0.15;;;;;;;;;;6153951;23;20305;-58
2022/04/03 13:27:06;;;;;;;0.00;0.00;;;;;;;;;;6153868;23;20002;-57
2022/04/03 13:29:34;;;;;;;0.22;0.22;;;;;;;;;;6153348;23;20035;-57
2022/04/03 13:31:59;;;;;;;0.17;0.17;;;;;;;;;;6153802;23;20006;-57
2022/04/03 13:34:24;;;;;;;0.10;0.10;;;;;;;;;;6153564;23;20035;-57
2022/04/03 13:36:50;;;;;;;0.20;0.20;;;;;;;;;;6153616;23;20076;-57
2022/04/03 13:39:16;;;;;;;0.15;0.15;;;;;;;;;;6153653;23;20005;-57
2022/04/03 13:41:41;;;;;;;0.00;0.00;;;;;;;;;;6152430;23;20352;-58
2022/04/03 13:44:07;;;;;;;0.00;0.00;;;;;;;;;;6152681;23;19994;-58
2022/04/03 13:46:33;;;;;;;0.00;0.00;;;;;;;;;;6151928;23;19994;-57
2022/04/03 13:48:58;;;;;;;0.00;0.00;;;;;;;;;;6152777;23;20428;-59
2022/04/03 13:51:23;;;;;;;0.00;0.00;;;;;;;;;;6151883;23;20001;-58
2022/04/03 13:53:49;;;;;;;0.00;0.00;;;;;;;;;;6148959;23;20026;-60
2022/04/03 13:56:14;;;;;;;0.00;0.00;;;;;;;;;;6152639;23;20013;-59
2022/04/03 13:58:40;;;;;;;0.98;0.85;;;;;;;;;;6152237;23;20009;-59
2022/04/03 14:01:06;;;;;;;0.00;0.00;;;;;;;;;;6152037;23;20005;-59
2022/04/03 14:03:32;;;;;;;0.38;0.38;;;;;;;;;;6152118;23;20005;-59
2022/04/03 14:05:57;;;;;;;0.00;0.00;;;;;;;;;;6152419;23;20043;-60
2022/04/03 14:08:23;;;;;;;0.00;0.00;;;;;;;;;;6151977;23;20002;-60
2022/04/03 14:10:49;;;;;;;0.00;0.00;;;;;;;;;;6152581;23;19998;-59
2022/04/03 14:13:15;;;;;;;1.10;0.80;;;;;;;;;;6152967;23;20004;-60
2022/04/03 14:15:40;;;;;;;0.00;0.00;;;;;;;;;;6152338;23;20009;-59
2022/04/03 14:18:05;;;;;;;0.35;0.35;;;;;;;;;;6152359;23;20008;-58
2022/04/03 14:20:30;;;;;;;0.00;0.00;;;;;;;;;;6151857;23;20029;-60
2022/04/03 14:22:56;;;;;;;0.15;0.15;;;;;;;;;;6152428;23;20004;-59
2022/04/03 14:25:21;;;;;;;3.58;0.38;;;;;;;;;;6151538;23;20439;-58
2022/04/03 14:27:46;;;;;;;0.00;0.00;;;;;;;;;;6152003;23;20650;-59
2022/04/03 14:30:14;;;;;;;0.00;0.00;;;;;;;;;;6152170;23;20002;-59
2022/04/03 14:32:46;;;;;;;0.45;0.45;;;;;;;;;;6151136;23;20006;-58
2022/04/03 14:35:17;;;;;;;0.05;0.05;;;;;;;;;;6152296;23;20071;-58
2022/04/03 14:37:43;;;;;;;0.45;0.10;;;;;;;;;;6151912;23;20001;-58
2022/04/03 14:40:09;;;;;;;0.00;0.00;;;;;;;;;;6152017;23;20032;-59